Time;durP1;ratioP1;P1;durP2;ratioP2;P2;SDS_P1;SDS_P2;PMS_P1;PMS_P2;Temp;Humidity;BMP_temperature;BMP_pressure;BME280_temperature;BME280_humidity;BME280_pressure;Samples;Min_cycle;Max_cycle;Signal;HPM_P1;HPM_P2
2023/09/03 00:00:14;;;;;;;2.10;2.00;;;16.30;99.90;;;;;;483151;246;28845;-75
2023/09/03 00:02:16;;;;;;;5.97;4.20;;;16.30;99.90;;;;;;483096;246;29381;-75
2023/09/03 00:04:17;;;;;;;9.40;3.83;;;16.20;99.90;;;;;;483080;246;29332;-75
2023/09/03 00:06:18;;;;;;;4.33;3.23;;;16.20;99.90;;;;;;483095;246;29303;-74
2023/09/03 00:08:19;;;;;;;6.10;3.27;;;16.20;99.90;;;;;;483089;246;28838;-75
2023/09/03 00:10:21;;;;;;;4.67;2.80;;;16.20;99.90;;;;;;483122;246;28866;-73
2023/09/03 00:12:22;;;;;;;2.57;2.37;;;16.20;99.90;;;;;;483116;246;28930;-71
2023/09/03 00:14:23;;;;;;;2.80;2.40;;;16.20;99.90;;;;;;483107;246;29314;-73
2023/09/03 00:16:24;;;;;;;3.33;2.43;;;16.20;99.90;;;;;;483108;246;29302;-74
2023/09/03 00:18:26;;;;;;;4.20;2.03;;;16.20;99.90;;;;;;483131;246;29382;-73
2023/09/03 00:20:27;;;;;;;2.80;2.30;;;16.10;99.90;;;;;;483113;246;28841;-72
2023/09/03 00:22:28;;;;;;;3.00;2.07;;;16.10;99.90;;;;;;483098;246;28864;-72
2023/09/03 00:24:30;;;;;;;2.43;2.30;;;16.10;99.90;;;;;;483110;246;29311;-72
2023/09/03 00:26:32;;;;;;;2.20;2.00;;;16.10;99.90;;;;;;483113;246;28919;-73
2023/09/03 00:28:33;;;;;;;3.03;2.20;;;16.10;99.90;;;;;;483111;246;28841;-73
2023/09/03 00:30:34;;;;;;;7.20;2.50;;;16.10;99.90;;;;;;483107;246;29307;-73
2023/09/03 00:32:35;;;;;;;4.47;2.60;;;16.10;99.90;;;;;;483111;246;29327;-73
2023/09/03 00:34:37;;;;;;;5.83;2.40;;;16.00;99.90;;;;;;483115;246;29322;-72
2023/09/03 00:36:40;;;;;;;2.87;2.67;;;16.00;99.90;;;;;;483068;246;28842;-73
2023/09/03 00:38:39;;;;;;;3.17;2.90;;;16.00;99.90;;;;;;483017;246;28861;-73
2023/09/03 00:40:40;;;;;;;3.10;2.80;;;16.00;99.90;;;;;;483100;246;28877;-74
2023/09/03 00:42:42;;;;;;;3.00;2.70;;;15.90;99.90;;;;;;483113;246;29378;-72
2023/09/03 00:44:43;;;;;;;6.00;2.40;;;15.90;99.90;;;;;;483097;246;29402;-72
2023/09/03 00:46:44;;;;;;;3.13;2.70;;;15.90;99.90;;;;;;483112;246;29314;-72
2023/09/03 00:48:46;;;;;;;3.80;2.87;;;15.80;99.90;;;;;;483074;246;28837;-76
2023/09/03 00:50:47;;;;;;;3.23;2.67;;;15.80;99.90;;;;;;483091;246;28990;-74
2023/09/03 00:52:48;;;;;;;2.67;2.47;;;15.80;99.90;;;;;;483094;246;28854;-73
2023/09/03 00:54:49;;;;;;;3.00;2.70;;;15.70;99.90;;;;;;483086;246;29413;-73
2023/09/03 00:56:51;;;;;;;2.40;2.30;;;15.70;99.90;;;;;;483102;246;29287;-73
2023/09/03 00:58:52;;;;;;;7.67;2.70;;;15.80;99.90;;;;;;483120;246;29311;-73
2023/09/03 01:00:53;;;;;;;4.20;2.33;;;15.80;99.90;;;;;;483109;246;28954;-73
2023/09/03 01:02:54;;;;;;;3.43;2.13;;;15.80;99.90;;;;;;483105;246;28843;-73
2023/09/03 01:04:56;;;;;;;7.83;2.40;;;15.80;99.90;;;;;;483103;246;28846;-72
2023/09/03 01:06:57;;;;;;;3.33;2.60;;;15.80;99.90;;;;;;483104;246;29338;-73
2023/09/03 01:08:58;;;;;;;6.67;2.43;;;15.80;99.90;;;;;;483136;246;29397;-73
2023/09/03 01:10:59;;;;;;;6.13;3.87;;;15.80;99.90;;;;;;483111;246;28948;-74
2023/09/03 01:13:01;;;;;;;4.13;2.60;;;15.80;99.90;;;;;;483114;246;29319;-73
2023/09/03 01:15:02;;;;;;;6.73;3.07;;;15.70;99.90;;;;;;483123;246;29294;-73
2023/09/03 01:17:03;;;;;;;3.03;2.83;;;15.70;99.90;;;;;;483122;246;29307;-74
2023/09/03 01:19:05;;;;;;;2.90;2.70;;;15.70;99.90;;;;;;483138;246;28946;-75
2023/09/03 01:21:06;;;;;;;2.40;2.20;;;15.60;99.90;;;;;;483073;246;28834;-76
2023/09/03 01:23:07;;;;;;;3.60;2.60;;;15.60;99.90;;;;;;483117;246;29300;-76
2023/09/03 01:25:08;;;;;;;2.70;2.27;;;15.60;99.90;;;;;;483110;246;28926;-71
2023/09/03 01:27:15;;;;;;;4.50;2.53;;;15.60;99.90;;;;;;483115;246;28832;-75
2023/09/03 01:29:17;;;;;;;2.60;2.40;;;15.60;99.90;;;;;;483100;246;28843;-75
2023/09/03 01:31:18;;;;;;;2.80;2.60;;;15.60;99.90;;;;;;483112;246;29307;-75
2023/09/03 01:33:19;;;;;;;2.17;2.07;;;15.60;99.90;;;;;;483117;246;28840;-74
2023/09/03 01:35:21;;;;;;;2.53;2.33;;;15.60;99.90;;;;;;483114;246;28821;-72
2023/09/03 01:37:22;;;;;;;3.10;2.40;;;15.60;99.90;;;;;;483117;246;29374;-73
2023/09/03 01:39:23;;;;;;;2.40;2.03;;;15.60;99.90;;;;;;483125;246;29752;-73
2023/09/03 01:41:24;;;;;;;2.40;2.30;;;15.60;99.90;;;;;;483136;246;28844;-73
2023/09/03 01:43:26;;;;;;;3.00;2.70;;;15.60;99.90;;;;;;483102;246;28943;-73
2023/09/03 01:45:27;;;;;;;2.30;2.10;;;15.50;99.90;;;;;;483114;246;29362;-73
2023/09/03 01:47:28;;;;;;;3.07;2.50;;;15.50;99.90;;;;;;483130;246;29294;-74
2023/09/03 01:49:29;;;;;;;2.13;1.93;;;15.50;99.90;;;;;;483119;246;28845;-75
2023/09/03 01:51:31;;;;;;;2.60;2.40;;;15.50;99.90;;;;;;483107;246;28837;-75
2023/09/03 01:53:32;;;;;;;2.57;2.20;;;15.40;99.90;;;;;;483107;246;29290;-74
2023/09/03 01:55:33;;;;;;;4.80;2.73;;;15.40;99.90;;;;;;483096;246;28926;-75
2023/09/03 01:57:35;;;;;;;2.33;2.13;;;15.40;99.90;;;;;;483106;246;28838;-75
2023/09/03 01:59:36;;;;;;;2.30;2.20;;;15.40;99.90;;;;;;483098;246;28853;-75
2023/09/03 02:01:37;;;;;;;3.70;2.30;;;15.40;99.90;;;;;;483100;246;28825;-77
2023/09/03 02:03:40;;;;;;;2.23;2.10;;;15.40;99.90;;;;;;483127;246;29423;-74
2023/09/03 02:05:40;;;;;;;2.40;2.10;;;15.40;99.90;;;;;;483024;246;29317;-74
2023/09/03 02:07:41;;;;;;;3.67;2.10;;;15.40;99.90;;;;;;483109;246;29405;-75
2023/09/03 02:09:42;;;;;;;3.90;1.93;;;15.40;99.90;;;;;;483116;246;28838;-76
2023/09/03 02:11:44;;;;;;;2.40;2.20;;;15.40;99.90;;;;;;483101;246;29418;-75
2023/09/03 02:13:45;;;;;;;2.40;2.23;;;15.40;99.90;;;;;;483062;246;28996;-76
2023/09/03 02:15:46;;;;;;;2.50;2.10;;;15.30;99.90;;;;;;483096;246;28845;-73
2023/09/03 02:17:47;;;;;;;2.20;2.10;;;15.30;99.90;;;;;;483108;246;28838;-74
2023/09/03 02:19:49;;;;;;;1.97;1.87;;;15.30;99.90;;;;;;483078;246;28848;-75
2023/09/03 02:21:50;;;;;;;4.93;2.60;;;15.30;99.90;;;;;;483086;246;29478;-76
2023/09/03 02:23:51;;;;;;;2.00;1.90;;;15.30;99.90;;;;;;483078;246;28855;-76
2023/09/03 02:25:53;;;;;;;2.27;2.17;;;15.30;99.90;;;;;;483094;246;28925;-73
2023/09/03 02:27:54;;;;;;;2.57;2.37;;;15.30;99.90;;;;;;483128;246;28933;-74
2023/09/03 02:29:55;;;;;;;2.00;1.90;;;15.30;99.90;;;;;;483113;246;28935;-73
2023/09/03 02:31:56;;;;;;;2.03;1.93;;;15.30;99.90;;;;;;483105;246;28840;-75
2023/09/03 02:33:58;;;;;;;2.00;1.90;;;15.20;99.90;;;;;;483105;246;28837;-74
2023/09/03 02:35:59;;;;;;;3.10;1.77;;;15.30;99.90;;;;;;483100;246;28948;-75
2023/09/03 02:38:00;;;;;;;2.03;1.93;;;15.20;99.90;;;;;;483102;246;28920;-75
2023/09/03 02:40:02;;;;;;;2.93;2.00;;;15.20;99.90;;;;;;483078;246;28845;-76
2023/09/03 02:42:03;;;;;;;2.60;2.40;;;15.20;99.90;;;;;;483118;246;28822;-73
2023/09/03 02:44:06;;;;;;;2.07;1.90;;;15.20;99.90;;;;;;483122;246;29286;-73
2023/09/03 02:46:05;;;;;;;2.10;1.90;;;15.20;99.90;;;;;;482985;246;29306;-73
2023/09/03 02:48:07;;;;;;;2.50;2.00;;;15.20;99.90;;;;;;483125;246;28856;-72
2023/09/03 02:50:09;;;;;;;2.60;2.40;;;15.20;99.90;;;;;;483129;246;28851;-72
2023/09/03 02:52:10;;;;;;;1.90;1.80;;;15.20;99.90;;;;;;483113;246;28963;-72
2023/09/03 02:54:11;;;;;;;2.27;2.17;;;15.20;99.90;;;;;;483106;246;28995;-73
2023/09/03 02:56:13;;;;;;;3.20;1.97;;;15.10;99.90;;;;;;483124;246;28868;-72
2023/09/03 02:58:14;;;;;;;1.90;1.80;;;15.10;99.90;;;;;;483119;246;28837;-73
2023/09/03 03:00:18;;;;;;;2.60;2.40;;;15.10;99.90;;;;;;483103;246;28849;-77
2023/09/03 03:02:17;;;;;;;2.30;2.10;;;15.10;99.90;;;;;;482974;246;28941;-75
2023/09/03 03:04:18;;;;;;;2.37;2.17;;;15.00;99.90;;;;;;483103;246;28620;-74
2023/09/03 03:06:19;;;;;;;2.20;2.10;;;15.10;99.90;;;;;;483098;246;28878;-73
2023/09/03 03:08:20;;;;;;;5.97;2.40;;;15.10;99.90;;;;;;483097;246;28848;-75
2023/09/03 03:10:22;;;;;;;2.50;2.03;;;15.10;99.90;;;;;;483101;246;29297;-75
2023/09/03 03:12:23;;;;;;;2.00;1.87;;;15.00;99.90;;;;;;483100;246;28867;-73
2023/09/03 03:14:24;;;;;;;2.47;2.27;;;15.00;99.90;;;;;;483097;246;28849;-75
2023/09/03 03:16:26;;;;;;;2.43;2.23;;;15.00;99.90;;;;;;483104;246;28856;-75
2023/09/03 03:18:27;;;;;;;2.30;1.97;;;15.10;99.90;;;;;;483109;246;28837;-73
2023/09/03 03:20:29;;;;;;;3.90;1.90;;;15.00;99.90;;;;;;483105;246;28864;-73
2023/09/03 03:22:30;;;;;;;2.17;2.07;;;15.00;99.90;;;;;;483118;246;28926;-71
2023/09/03 03:24:32;;;;;;;2.03;1.93;;;15.00;99.90;;;;;;483116;246;28835;-73
2023/09/03 03:26:34;;;;;;;2.70;2.10;;;15.00;99.90;;;;;;483113;246;28859;-73
2023/09/03 03:28:34;;;;;;;2.00;1.80;;;15.00;99.90;;;;;;483097;246;28927;-75
2023/09/03 03:30:36;;;;;;;1.70;1.60;;;15.00;99.90;;;;;;483096;246;29305;-73
2023/09/03 03:32:37;;;;;;;2.23;2.03;;;15.00;99.90;;;;;;483091;246;29388;-75
2023/09/03 03:34:38;;;;;;;7.10;2.10;;;15.00;99.90;;;;;;483101;246;28951;-80
2023/09/03 03:36:40;;;;;;;2.10;2.00;;;14.90;99.90;;;;;;483101;246;28443;-74
2023/09/03 03:38:41;;;;;;;2.40;2.20;;;14.90;99.90;;;;;;483074;246;28564;-76
2023/09/03 03:40:42;;;;;;;2.30;2.10;;;14.90;99.90;;;;;;483093;246;28833;-75
2023/09/03 03:42:43;;;;;;;1.93;1.83;;;14.90;99.90;;;;;;483102;246;28552;-75
2023/09/03 03:44:45;;;;;;;2.43;2.23;;;14.90;99.90;;;;;;483122;246;29003;-74
2023/09/03 03:46:47;;;;;;;7.40;2.70;;;14.90;99.90;;;;;;483130;246;29305;-73
2023/09/03 03:48:48;;;;;;;3.30;2.30;;;14.90;99.90;;;;;;484597;244;28755;-72
2023/09/03 03:50:50;;;;;;;2.13;2.03;;;14.90;99.90;;;;;;484605;245;28561;-73
2023/09/03 03:52:51;;;;;;;1.90;1.80;;;14.90;99.90;;;;;;484610;245;29680;-72
2023/09/03 03:54:52;;;;;;;3.10;2.20;;;14.80;99.90;;;;;;484613;245;28737;-73
2023/09/03 03:56:53;;;;;;;1.77;1.67;;;14.80;99.90;;;;;;484601;245;28524;-73
2023/09/03 03:58:56;;;;;;;2.80;2.00;;;14.80;99.90;;;;;;484620;245;29206;-74
2023/09/03 04:00:57;;;;;;;2.43;2.17;;;14.80;99.90;;;;;;484619;245;28520;-72
2023/09/03 04:02:59;;;;;;;2.93;2.10;;;14.70;99.90;;;;;;484588;245;28436;-72
2023/09/03 04:04:59;;;;;;;2.80;2.27;;;14.80;99.90;;;;;;484568;245;28735;-75
2023/09/03 04:07:01;;;;;;;4.53;2.40;;;14.80;99.90;;;;;;484579;245;28805;-75
2023/09/03 04:09:02;;;;;;;2.40;2.20;;;14.70;99.90;;;;;;484596;245;28827;-75
2023/09/03 04:11:03;;;;;;;2.60;2.40;;;14.70;99.90;;;;;;484587;245;28513;-75
2023/09/03 04:13:05;;;;;;;2.30;2.10;;;14.80;99.90;;;;;;484598;245;28747;-73
2023/09/03 04:15:06;;;;;;;2.33;2.20;;;14.80;99.90;;;;;;484589;245;28540;-75
2023/09/03 04:17:07;;;;;;;2.47;2.27;;;14.80;99.90;;;;;;484588;245;28757;-76
2023/09/03 04:19:11;;;;;;;2.20;2.00;;;14.80;99.90;;;;;;484579;245;28401;-75
2023/09/03 04:21:11;;;;;;;2.73;2.53;;;14.80;99.90;;;;;;484537;245;28510;-72
2023/09/03 04:23:12;;;;;;;2.37;2.17;;;14.80;99.90;;;;;;484610;245;28437;-74
2023/09/03 04:25:13;;;;;;;2.20;2.10;;;14.80;99.90;;;;;;484612;245;28738;-72
2023/09/03 04:27:15;;;;;;;3.33;2.60;;;14.80;99.90;;;;;;484572;245;28737;-73
2023/09/03 04:29:16;;;;;;;2.93;2.13;;;14.80;99.90;;;;;;484591;245;28757;-75
2023/09/03 04:31:17;;;;;;;3.00;2.70;;;14.80;99.90;;;;;;484594;245;28754;-74
2023/09/03 04:33:19;;;;;;;7.37;2.57;;;14.80;99.90;;;;;;484583;245;28829;-74
2023/09/03 04:35:20;;;;;;;2.27;2.07;;;14.80;99.90;;;;;;484734;244;28755;-78
2023/09/03 04:37:21;;;;;;;2.70;2.50;;;14.80;99.90;;;;;;484605;245;28841;-73
2023/09/03 04:39:22;;;;;;;2.70;2.50;;;14.80;99.90;;;;;;484579;245;28328;-73
2023/09/03 04:41:24;;;;;;;3.00;2.70;;;14.80;99.90;;;;;;484583;245;28826;-76
2023/09/03 04:43:26;;;;;;;3.83;2.23;;;14.80;99.90;;;;;;484591;245;28746;-75
2023/09/03 04:45:26;;;;;;;2.43;2.23;;;14.70;99.90;;;;;;484440;245;29324;-77
2023/09/03 04:47:29;;;;;;;2.10;2.00;;;14.80;99.90;;;;;;484576;245;28511;-71
2023/09/03 04:49:29;;;;;;;3.20;2.00;;;14.80;99.90;;;;;;484561;245;28745;-73
2023/09/03 04:51:30;;;;;;;2.20;2.00;;;14.80;99.90;;;;;;484643;245;28794;-77
2023/09/03 04:53:32;;;;;;;3.33;2.30;;;14.80;99.90;;;;;;484610;245;28447;-71
2023/09/03 04:55:33;;;;;;;6.47;3.10;;;14.80;99.90;;;;;;484646;245;29200;-73
2023/09/03 04:57:34;;;;;;;3.40;3.10;;;14.80;99.90;;;;;;484639;245;29310;-74
2023/09/03 04:59:35;;;;;;;4.10;3.50;;;14.70;99.90;;;;;;484637;245;28873;-73
2023/09/03 05:01:38;;;;;;;3.30;3.00;;;14.70;99.90;;;;;;484647;245;28440;-72
2023/09/03 05:03:39;;;;;;;3.33;3.03;;;14.80;99.90;;;;;;484630;245;28845;-74
2023/09/03 05:05:41;;;;;;;3.07;2.73;;;14.80;99.90;;;;;;484640;245;28910;-74
2023/09/03 05:07:42;;;;;;;2.83;2.63;;;14.80;99.90;;;;;;484603;245;28841;-74
2023/09/03 05:09:44;;;;;;;4.23;2.50;;;14.80;99.90;;;;;;484629;245;28443;-73
2023/09/03 05:11:45;;;;;;;3.63;2.80;;;14.80;99.90;;;;;;484633;245;29212;-73
2023/09/03 05:13:46;;;;;;;2.97;2.50;;;14.90;99.90;;;;;;484640;245;29203;-73
2023/09/03 05:15:47;;;;;;;5.13;3.00;;;14.90;99.90;;;;;;484646;245;29282;-74
2023/09/03 05:17:49;;;;;;;3.80;2.90;;;14.90;99.90;;;;;;484614;245;28449;-76
2023/09/03 05:19:50;;;;;;;4.10;3.30;;;14.90;99.90;;;;;;484615;245;28817;-73
2023/09/03 05:21:51;;;;;;;5.90;3.50;;;14.90;99.90;;;;;;484602;245;28736;-75
2023/09/03 05:23:53;;;;;;;6.73;5.00;;;15.00;99.90;;;;;;484609;245;28811;-75
2023/09/03 05:25:54;;;;;;;8.10;5.30;;;15.00;99.90;;;;;;484620;245;28833;-73
2023/09/03 05:27:56;;;;;;;5.57;4.67;;;15.00;99.90;;;;;;484625;245;28749;-74
2023/09/03 05:29:57;;;;;;;7.90;3.60;;;14.90;99.90;;;;;;484628;245;29208;-75
2023/09/03 05:31:58;;;;;;;7.33;4.00;;;14.90;99.90;;;;;;484616;245;29209;-73
2023/09/03 05:34:02;;;;;;;7.50;3.60;;;14.90;99.90;;;;;;484613;245;29007;-75
2023/09/03 05:36:03;;;;;;;3.33;2.80;;;14.90;99.90;;;;;;484609;245;28844;-75
2023/09/03 05:38:05;;;;;;;2.50;2.30;;;14.80;99.90;;;;;;484606;245;28747;-75
2023/09/03 05:40:06;;;;;;;3.73;2.77;;;14.70;99.90;;;;;;484605;245;29195;-75
2023/09/03 05:42:07;;;;;;;3.07;2.83;;;14.80;99.90;;;;;;484607;245;29228;-76
2023/09/03 05:44:13;;;;;;;2.77;2.57;;;15.00;99.90;;;;;;484588;245;29285;-75
2023/09/03 05:46:10;;;;;;;6.00;3.17;;;15.00;99.90;;;;;;484342;245;28842;-75
2023/09/03 05:48:12;;;;;;;2.70;2.50;;;15.10;99.90;;;;;;484583;245;28746;-75
2023/09/03 05:50:13;;;;;;;2.57;2.43;;;15.20;99.90;;;;;;484586;245;28813;-74
2023/09/03 05:52:16;;;;;;;4.83;2.80;;;15.30;99.90;;;;;;484602;245;28798;-76
2023/09/03 05:54:18;;;;;;;3.13;2.80;;;15.40;99.90;;;;;;484582;245;28809;-72
2023/09/03 05:56:19;;;;;;;2.60;2.40;;;15.40;99.90;;;;;;484496;245;28739;-73
2023/09/03 05:58:20;;;;;;;2.90;2.47;;;15.50;99.90;;;;;;484609;245;29206;-72
2023/09/03 06:00:21;;;;;;;3.00;2.70;;;15.60;99.90;;;;;;484608;245;29282;-72
2023/09/03 06:02:23;;;;;;;3.10;2.50;;;15.60;99.90;;;;;;484595;245;29202;-74
2023/09/03 06:04:24;;;;;;;3.30;2.37;;;15.70;99.90;;;;;;484610;245;28742;-75
2023/09/03 06:06:25;;;;;;;2.67;2.47;;;15.80;99.90;;;;;;484596;245;28739;-75
2023/09/03 06:08:27;;;;;;;3.87;3.10;;;15.80;99.90;;;;;;484604;245;28735;-74
2023/09/03 06:10:28;;;;;;;2.97;2.73;;;15.90;99.90;;;;;;484588;245;28748;-74
2023/09/03 06:12:29;;;;;;;4.23;3.23;;;16.00;99.90;;;;;;484598;245;28750;-73
2023/09/03 06:14:30;;;;;;;3.60;3.30;;;16.00;99.90;;;;;;484601;245;29307;-73
2023/09/03 06:16:32;;;;;;;3.70;3.17;;;16.10;99.90;;;;;;484620;245;29294;-74
2023/09/03 06:18:33;;;;;;;4.83;2.83;;;16.20;99.90;;;;;;484627;245;29286;-76
2023/09/03 06:20:37;;;;;;;3.17;2.70;;;16.20;99.90;;;;;;484633;245;28728;-73
2023/09/03 06:22:35;;;;;;;3.30;3.00;;;16.20;99.90;;;;;;484438;245;28742;-73
2023/09/03 06:24:37;;;;;;;3.43;2.70;;;16.20;99.90;;;;;;484599;245;28815;-74
2023/09/03 06:26:38;;;;;;;3.27;2.97;;;16.30;99.90;;;;;;484605;245;28767;-73
2023/09/03 06:28:39;;;;;;;3.97;3.17;;;16.30;99.90;;;;;;484603;245;28823;-75
2023/09/03 06:30:40;;;;;;;3.90;2.77;;;16.40;99.90;;;;;;484612;245;28819;-75
2023/09/03 06:32:42;;;;;;;3.60;2.77;;;16.50;99.90;;;;;;484602;245;29272;-76
2023/09/03 06:34:43;;;;;;;3.10;2.20;;;16.50;99.90;;;;;;484611;245;29310;-75
2023/09/03 06:36:44;;;;;;;9.93;2.63;;;16.50;99.90;;;;;;484613;245;29292;-72
2023/09/03 06:38:45;;;;;;;4.70;2.93;;;16.60;99.90;;;;;;484604;245;28901;-76
2023/09/03 06:40:47;;;;;;;7.10;2.70;;;16.70;99.90;;;;;;484605;245;28819;-75
2023/09/03 06:42:48;;;;;;;2.33;2.13;;;16.70;99.90;;;;;;484609;245;28751;-76
2023/09/03 06:44:49;;;;;;;3.97;2.10;;;16.80;99.90;;;;;;484606;245;28735;-75
2023/09/03 06:46:50;;;;;;;2.80;2.10;;;16.80;99.90;;;;;;484588;245;28830;-75
2023/09/03 06:48:52;;;;;;;2.47;2.27;;;16.90;99.90;;;;;;484610;245;28822;-75
2023/09/03 06:50:54;;;;;;;3.03;2.10;;;16.90;99.90;;;;;;484606;245;28743;-75
2023/09/03 06:52:55;;;;;;;4.97;2.60;;;16.90;99.90;;;;;;484607;245;29201;-74
2023/09/03 06:54:56;;;;;;;3.40;2.23;;;17.00;99.90;;;;;;484609;245;29294;-75
2023/09/03 06:56:58;;;;;;;3.50;2.60;;;17.00;99.90;;;;;;484613;245;28795;-73
2023/09/03 06:58:59;;;;;;;3.17;2.33;;;17.00;99.90;;;;;;484613;245;28731;-73
2023/09/03 07:01:02;;;;;;;2.57;2.37;;;17.00;99.90;;;;;;484614;245;28743;-73
2023/09/03 07:03:02;;;;;;;4.80;2.33;;;17.10;99.90;;;;;;484472;245;28755;-74
2023/09/03 07:05:04;;;;;;;4.77;2.27;;;17.20;99.90;;;;;;484602;245;28831;-75
2023/09/03 07:07:05;;;;;;;4.23;1.80;;;17.30;99.90;;;;;;484572;245;28730;-74
2023/09/03 07:09:06;;;;;;;3.50;2.20;;;17.30;99.90;;;;;;484595;245;29220;-75
2023/09/03 07:11:07;;;;;;;2.33;2.20;;;17.50;99.90;;;;;;484599;245;29192;-76
2023/09/03 07:13:09;;;;;;;3.33;2.30;;;17.60;99.90;;;;;;484599;245;29209;-74
2023/09/03 07:15:11;;;;;;;4.60;2.43;;;17.70;99.90;;;;;;484601;245;28730;-74
2023/09/03 07:17:12;;;;;;;2.33;2.23;;;17.80;99.90;;;;;;484607;245;28743;-74
2023/09/03 07:19:13;;;;;;;2.63;2.43;;;17.90;99.90;;;;;;484590;245;28726;-76
2023/09/03 07:21:15;;;;;;;3.80;2.40;;;18.00;99.90;;;;;;484613;245;29248;-74
2023/09/03 07:23:16;;;;;;;3.30;2.30;;;18.00;99.90;;;;;;484588;245;29569;-75
2023/09/03 07:25:17;;;;;;;5.50;2.90;;;18.10;99.90;;;;;;484612;245;29207;-76
2023/09/03 07:27:18;;;;;;;3.20;2.60;;;18.20;99.90;;;;;;484606;245;28727;-74
2023/09/03 07:29:20;;;;;;;2.80;2.60;;;18.40;99.90;;;;;;484600;245;28742;-76
2023/09/03 07:31:21;;;;;;;2.77;2.57;;;18.50;99.90;;;;;;484603;245;28841;-76
2023/09/03 07:33:22;;;;;;;2.53;2.33;;;18.60;99.90;;;;;;484606;245;28806;-74
2023/09/03 07:35:24;;;;;;;3.07;2.20;;;18.70;99.90;;;;;;484597;245;29252;-74
2023/09/03 07:37:25;;;;;;;2.50;2.27;;;18.80;99.90;;;;;;484604;245;29188;-75
2023/09/03 07:39:26;;;;;;;2.53;2.37;;;19.00;99.90;;;;;;484603;245;29230;-74
2023/09/03 07:41:29;;;;;;;2.87;2.57;;;19.10;99.90;;;;;;484595;245;28752;-75
2023/09/03 07:43:31;;;;;;;2.30;2.10;;;19.20;99.90;;;;;;484597;245;28763;-77
2023/09/03 07:45:32;;;;;;;5.00;2.30;;;19.30;99.90;;;;;;484557;245;28742;-75
2023/09/03 07:47:33;;;;;;;2.70;2.30;;;19.40;99.90;;;;;;484578;245;29184;-75
2023/09/03 07:49:34;;;;;;;2.07;1.87;;;19.50;99.90;;;;;;484579;245;29613;-74
2023/09/03 07:51:36;;;;;;;2.53;2.10;;;19.60;99.90;;;;;;484598;245;29301;-74
2023/09/03 07:53:37;;;;;;;2.10;1.90;;;19.60;99.90;;;;;;484592;245;28741;-74
2023/09/03 07:55:38;;;;;;;2.37;2.17;;;19.60;99.90;;;;;;484469;245;28819;-74
2023/09/03 07:57:39;;;;;;;1.60;1.50;;;19.70;99.90;;;;;;484597;245;28742;-73
2023/09/03 07:59:41;;;;;;;2.47;2.23;;;19.80;99.90;;;;;;484590;245;29197;-74
2023/09/03 08:01:42;;;;;;;2.50;2.13;;;19.90;99.90;;;;;;484590;245;29272;-74
2023/09/03 08:03:43;;;;;;;2.03;1.93;;;20.00;99.90;;;;;;484604;245;28853;-79
2023/09/03 08:05:44;;;;;;;2.03;1.93;;;20.00;99.90;;;;;;484593;245;28754;-74
2023/09/03 08:07:46;;;;;;;2.53;1.53;;;20.00;99.90;;;;;;484592;245;29246;-74
2023/09/03 08:09:47;;;;;;;2.73;2.00;;;20.10;99.90;;;;;;484603;245;29181;-75
2023/09/03 08:11:48;;;;;;;2.60;1.83;;;20.00;99.90;;;;;;484588;245;28846;-74
2023/09/03 08:13:51;;;;;;;4.27;2.20;;;20.00;99.90;;;;;;484588;245;28753;-74
2023/09/03 08:15:52;;;;;;;2.67;1.83;;;20.20;99.90;;;;;;484596;245;28759;-75
2023/09/03 08:17:53;;;;;;;3.27;2.27;;;20.20;99.90;;;;;;484601;245;28751;-75
2023/09/03 08:19:54;;;;;;;3.50;2.20;;;20.30;99.90;;;;;;484595;245;29212;-74
2023/09/03 08:21:56;;;;;;;2.20;2.00;;;20.10;99.90;;;;;;484592;245;29676;-75
2023/09/03 08:23:57;;;;;;;1.80;1.70;;;20.00;99.90;;;;;;484619;245;29194;-73
2023/09/03 08:25:59;;;;;;;5.90;1.87;;;19.90;99.90;;;;;;484591;245;28733;-74
2023/09/03 08:28:00;;;;;;;3.00;1.90;;;20.00;99.90;;;;;;484624;245;29198;-74
2023/09/03 08:30:01;;;;;;;2.83;2.20;;;19.90;99.90;;;;;;484623;245;28835;-74
2023/09/03 08:32:03;;;;;;;2.33;2.13;;;20.00;99.90;;;;;;484618;245;28766;-74
2023/09/03 08:34:04;;;;;;;3.40;2.17;;;20.10;99.90;;;;;;484624;245;28746;-74
2023/09/03 08:36:05;;;;;;;2.27;2.07;;;20.20;99.90;;;;;;484627;245;29232;-73
2023/09/03 08:38:07;;;;;;;2.50;2.30;;;20.30;99.90;;;;;;484602;245;29254;-73
2023/09/03 08:40:08;;;;;;;2.40;2.20;;;20.30;99.90;;;;;;484621;245;28758;-74
2023/09/03 08:42:09;;;;;;;5.40;1.93;;;20.50;99.90;;;;;;484615;245;28749;-75
2023/09/03 08:44:10;;;;;;;2.97;2.30;;;20.50;99.90;;;;;;484614;245;29226;-75
2023/09/03 08:46:12;;;;;;;3.87;2.20;;;20.50;99.90;;;;;;484624;245;29290;-75
2023/09/03 08:48:13;;;;;;;2.10;1.90;;;20.50;99.90;;;;;;484601;245;28826;-75
2023/09/03 08:50:14;;;;;;;2.67;2.33;;;20.70;99.90;;;;;;484611;245;28737;-74
2023/09/03 08:52:16;;;;;;;2.50;2.20;;;20.50;99.90;;;;;;484626;245;29178;-75
2023/09/03 08:54:17;;;;;;;3.20;2.30;;;20.50;99.90;;;;;;484613;245;29299;-74
2023/09/03 08:56:18;;;;;;;4.63;2.23;;;20.60;99.90;;;;;;484613;245;28755;-75
2023/09/03 08:58:19;;;;;;;2.30;2.10;;;20.50;99.90;;;;;;484615;245;28803;-75
2023/09/03 09:00:21;;;;;;;2.40;2.13;;;20.70;99.90;;;;;;484621;245;29176;-76
2023/09/03 09:02:22;;;;;;;5.63;2.47;;;20.90;99.90;;;;;;484621;245;29275;-75
2023/09/03 09:04:23;;;;;;;2.30;2.20;;;20.90;99.90;;;;;;484623;245;29207;-75
2023/09/03 09:06:24;;;;;;;2.90;2.27;;;20.80;99.90;;;;;;484624;245;28725;-74
2023/09/03 09:08:26;;;;;;;2.97;2.50;;;20.80;99.90;;;;;;484603;245;28734;-75
2023/09/03 09:10:28;;;;;;;2.53;2.30;;;20.90;99.90;;;;;;484576;245;28743;-74
2023/09/03 09:12:29;;;;;;;4.20;3.00;;;20.90;99.90;;;;;;484614;245;29199;-74
2023/09/03 09:14:31;;;;;;;2.47;2.30;;;21.10;99.90;;;;;;484611;245;29298;-74
2023/09/03 09:16:32;;;;;;;3.10;2.30;;;21.20;99.90;;;;;;484613;245;28751;-73
2023/09/03 09:18:33;;;;;;;2.77;2.50;;;21.40;99.90;;;;;;484606;245;28746;-74
2023/09/03 09:20:34;;;;;;;3.20;2.90;;;21.50;99.90;;;;;;484614;245;28762;-74
2023/09/03 09:22:35;;;;;;;3.27;2.97;;;21.00;99.90;;;;;;484602;245;29282;-74
2023/09/03 09:24:38;;;;;;;3.43;3.13;;;20.60;99.90;;;;;;484605;245;29256;-73
2023/09/03 09:26:39;;;;;;;3.20;2.87;;;20.70;99.90;;;;;;484602;245;28760;-74
2023/09/03 09:28:40;;;;;;;4.40;3.07;;;20.60;99.90;;;;;;484580;245;28750;-74
2023/09/03 09:30:42;;;;;;;3.47;3.17;;;20.80;99.90;;;;;;484593;245;28753;-74
2023/09/03 09:32:43;;;;;;;3.43;3.13;;;20.90;99.90;;;;;;484607;245;28771;-75
2023/09/03 09:34:44;;;;;;;3.10;2.80;;;20.70;99.90;;;;;;484605;245;28831;-74
2023/09/03 09:36:45;;;;;;;3.17;2.90;;;20.80;99.90;;;;;;484616;245;28747;-74
2023/09/03 09:38:47;;;;;;;5.23;2.70;;;20.90;99.90;;;;;;484617;245;28744;-75
2023/09/03 09:40:48;;;;;;;2.83;2.63;;;20.90;99.90;;;;;;484611;245;28747;-74
2023/09/03 09:42:49;;;;;;;3.20;2.90;;;21.10;99.90;;;;;;484611;245;29282;-74
2023/09/03 09:44:51;;;;;;;2.93;2.73;;;21.10;99.90;;;;;;484611;245;29263;-73
2023/09/03 09:46:53;;;;;;;4.87;2.70;;;21.20;99.90;;;;;;484621;245;28749;-80
2023/09/03 09:48:53;;;;;;;4.70;3.00;;;21.20;99.90;;;;;;484536;245;28739;-74
2023/09/03 09:50:54;;;;;;;5.53;2.80;;;21.20;99.90;;;;;;484613;245;28879;-74
2023/09/03 09:52:56;;;;;;;4.03;2.70;;;21.10;99.90;;;;;;484559;245;28748;-74
2023/09/03 09:54:57;;;;;;;2.60;2.40;;;21.20;99.90;;;;;;484603;245;28838;-73
2023/09/03 09:56:58;;;;;;;3.50;2.70;;;21.40;99.90;;;;;;484608;245;29306;-75
2023/09/03 09:59:00;;;;;;;11.23;3.60;;;21.50;99.90;;;;;;484614;245;28842;-74
2023/09/03 10:01:01;;;;;;;2.63;2.20;;;21.50;99.90;;;;;;484600;245;29332;-75
2023/09/03 10:03:04;;;;;;;3.33;2.53;;;21.60;99.90;;;;;;484612;245;28760;-78
2023/09/03 10:05:04;;;;;;;3.20;2.70;;;21.70;99.90;;;;;;484500;245;28857;-74
2023/09/03 10:07:06;;;;;;;2.63;2.43;;;21.80;99.90;;;;;;484608;245;28758;-74
2023/09/03 10:09:08;;;;;;;3.30;2.80;;;21.70;99.90;;;;;;484520;245;28738;-74
2023/09/03 10:11:09;;;;;;;3.10;2.40;;;21.60;99.90;;;;;;484611;245;28779;-74
2023/09/03 10:13:11;;;;;;;7.20;3.47;;;21.70;99.90;;;;;;484604;245;29307;-74
2023/09/03 10:15:15;;;;;;;3.00;2.70;;;21.80;99.90;;;;;;484606;245;29308;-74
2023/09/03 10:17:16;;;;;;;3.60;3.30;;;21.90;99.90;;;;;;484605;245;29223;-75
2023/09/03 10:19:17;;;;;;;3.13;2.83;;;21.80;99.90;;;;;;484572;245;28910;-74
2023/09/03 10:21:19;;;;;;;2.97;2.77;;;21.80;99.90;;;;;;484610;245;28830;-75
2023/09/03 10:23:20;;;;;;;5.23;3.10;;;21.60;99.90;;;;;;484616;245;28837;-74
2023/09/03 10:25:21;;;;;;;3.37;3.00;;;21.80;99.90;;;;;;484610;245;28850;-74
2023/09/03 10:27:23;;;;;;;3.40;2.60;;;21.60;99.90;;;;;;484476;245;28808;-74
2023/09/03 10:29:24;;;;;;;2.90;2.70;;;21.80;99.90;;;;;;484594;245;28821;-74
2023/09/03 10:31:26;;;;;;;2.70;2.50;;;22.00;99.90;;;;;;484488;245;28829;-73